Terminal Aerodrome Forecast
Issued by NWS Upton, NY

Home | Current Version | Previous Version | Text Only | Print | Product List | Glossary On
Versions: 1 2 3 4 5 6 7 8 9 10 11 12 13 14 15 16 17 18 19 20 21 22 23 24 25 26 27 28 29 30
000
FTUS41 KOKX 310230 AAB
TAFEWR
TAF AMD
KEWR 310230Z 3103/0106 24009KT P6SM SCT050 BKN100
     FM310500 25006KT P6SM FEW050 BKN100
     FM311200 25006KT P6SM SCT100 BKN250
     FM311500 27010KT P6SM BKN250
     FM311900 27012G18KT P6SM SCT050 BKN250
     FM010100 28010KT P6SM SCT250=

USA.gov is the U.S. government's official web portal to all federal, state and local government web resources and services.